Terminal Aerodrome Forecast
Issued by NWS Upton, NY

Home | Current Version | Previous Version | Text Only | Print | Product List | Glossary On
Versions: 1 2 3 4 5 6 7 8 9 10 11 12 13 14 15 16 17 18 19 20 21 22 23 24 25 26 27 28 29 30 31
000
FTUS41 KOKX 222300
TAFEWR
TAF
KEWR 222338Z 2300/2406 07007KT P6SM OVC035
     FM231200 09009KT P6SM BKN035 OVC100
     FM232100 11007KT P6SM SCT035 BKN100
     FM240200 07005KT P6SM SCT100=

USA.gov is the U.S. government's official web portal to all federal, state and local government web resources and services.